createdAt,value
2023-03-19T00:01:07.179Z,7.69
2023-03-19T00:03:52.649Z,7.71
2023-03-19T00:06:38.009Z,7.67
2023-03-19T00:09:22.993Z,7.66
2023-03-19T00:12:09.359Z,7.67
2023-03-19T00:14:54.571Z,7.68
2023-03-19T00:17:41.416Z,7.65
2023-03-19T00:20:27.240Z,7.58
2023-03-19T00:23:12.351Z,7.63
2023-03-19T00:25:57.520Z,7.50
2023-03-19T00:28:42.527Z,7.63
2023-03-19T00:31:29.031Z,7.63
2023-03-19T00:34:14.655Z,7.63
2023-03-19T00:36:59.564Z,7.65
2023-03-19T00:39:44.865Z,7.55
2023-03-19T00:42:30.534Z,7.58
2023-03-19T00:45:16.526Z,7.63
2023-03-19T00:48:01.448Z,7.65
2023-03-19T00:50:46.309Z,7.62
2023-03-19T00:53:31.612Z,7.60
2023-03-19T00:56:18.364Z,7.66
2023-03-19T00:59:03.761Z,7.66
2023-03-19T01:01:48.886Z,7.65
2023-03-19T01:04:34.230Z,7.70
2023-03-19T01:07:19.396Z,7.66
2023-03-19T01:10:04.881Z,7.73
2023-03-19T01:12:50.984Z,7.67
2023-03-19T01:15:38.143Z,7.68
2023-03-19T01:18:23.024Z,7.73
2023-03-19T01:21:08.429Z,7.77
2023-03-19T01:23:53.558Z,7.74
2023-03-19T01:26:38.621Z,7.80
2023-03-19T01:29:23.847Z,7.82
2023-03-19T01:32:08.846Z,7.77
2023-03-19T01:34:54.173Z,7.73
2023-03-19T01:37:40.167Z,7.83
2023-03-19T01:40:25.353Z,7.85
2023-03-19T01:43:15.425Z,7.81
2023-03-19T01:46:05.097Z,7.89
2023-03-19T01:48:53.881Z,7.93
2023-03-19T01:51:43.404Z,7.98
2023-03-19T01:54:30.549Z,7.99
2023-03-19T01:57:17.255Z,8.04
2023-03-19T02:00:05.441Z,8.06
2023-03-19T02:02:56.668Z,8.11
2023-03-19T02:05:45.536Z,8.10
2023-03-19T02:08:32.193Z,8.12
2023-03-19T02:11:18.923Z,8.14
2023-03-19T02:14:04.087Z,8.17
2023-03-19T02:16:49.353Z,8.15
2023-03-19T02:19:48.450Z,8.15
2023-03-19T02:22:35.494Z,8.16
2023-03-19T02:25:46.556Z,8.18
2023-03-19T02:28:33.281Z,8.18
2023-03-19T02:31:19.086Z,8.21
2023-03-19T02:34:27.566Z,8.14
2023-03-19T02:37:18.784Z,8.13
2023-03-19T02:40:08.947Z,8.18
2023-03-19T02:42:54.287Z,8.14
2023-03-19T02:45:39.815Z,7.94
2023-03-19T02:48:25.378Z,8.04
2023-03-19T02:51:10.456Z,8.00
2023-03-19T02:53:55.861Z,7.92
2023-03-19T02:56:41.313Z,7.92
2023-03-19T02:59:27.018Z,7.89
2023-03-19T03:02:12.542Z,7.78
2023-03-19T03:04:57.880Z,7.71
2023-03-19T03:07:44.902Z,7.81
2023-03-19T03:10:31.022Z,7.81
2023-03-19T03:13:16.364Z,7.80
2023-03-19T03:16:01.914Z,7.78
2023-03-19T03:18:47.142Z,7.71
2023-03-19T03:21:35.277Z,7.78
2023-03-19T03:24:21.082Z,7.75
2023-03-19T03:27:06.649Z,7.74
2023-03-19T03:29:52.195Z,7.76
2023-03-19T03:32:38.887Z,7.79
2023-03-19T03:35:24.099Z,7.64
2023-03-19T03:38:09.804Z,7.68
2023-03-19T03:40:54.938Z,7.62
2023-03-19T03:43:41.046Z,7.68
2023-03-19T03:46:26.232Z,7.72
2023-03-19T03:49:11.393Z,7.67
2023-03-19T03:51:57.342Z,7.66
2023-03-19T03:54:42.619Z,7.58
2023-03-19T03:57:27.888Z,7.63
2023-03-19T04:00:14.279Z,7.62
2023-03-19T04:02:59.683Z,7.60
2023-03-19T04:05:45.855Z,7.59
2023-03-19T04:08:30.822Z,7.54
2023-03-19T04:11:15.937Z,7.55
2023-03-19T04:14:03.270Z,7.47
2023-03-19T04:16:48.421Z,7.55
2023-03-19T04:19:33.592Z,7.54
2023-03-19T04:22:18.927Z,7.53
2023-03-19T04:25:05.077Z,7.45
2023-03-19T04:27:49.980Z,7.52
2023-03-19T04:30:35.684Z,7.48
2023-03-19T04:33:21.113Z,7.48
2023-03-19T04:36:07.001Z,7.50
2023-03-19T04:38:52.655Z,7.48
2023-03-19T04:41:37.691Z,7.45
2023-03-19T04:44:23.710Z,7.45
2023-03-19T04:47:10.282Z,7.34
2023-03-19T04:49:55.188Z,7.31
2023-03-19T04:52:40.390Z,7.29
2023-03-19T04:55:25.741Z,7.31
2023-03-19T04:58:11.344Z,7.33
2023-03-19T05:00:56.324Z,7.35
2023-03-19T05:03:41.584Z,7.29
2023-03-19T05:06:27.300Z,7.38
2023-03-19T05:09:12.329Z,7.36
2023-03-19T05:11:57.459Z,7.35
2023-03-19T05:14:42.709Z,7.30
2023-03-19T05:17:27.795Z,7.26
2023-03-19T05:20:13.045Z,7.21
2023-03-19T05:22:59.504Z,7.23
2023-03-19T05:25:44.650Z,7.22
2023-03-19T05:28:30.025Z,7.19
2023-03-19T05:31:15.309Z,7.12
2023-03-19T05:34:00.813Z,7.17
2023-03-19T05:36:46.507Z,7.21
2023-03-19T05:39:31.687Z,7.17
2023-03-19T05:42:16.957Z,7.18
2023-03-19T05:45:02.358Z,7.22
2023-03-19T05:47:50.903Z,7.18
2023-03-19T05:50:36.037Z,7.11
2023-03-19T05:53:23.037Z,7.04
2023-03-19T05:56:08.407Z,7.09
2023-03-19T05:58:53.564Z,7.01
2023-03-19T06:01:38.805Z,6.94
2023-03-19T06:04:23.785Z,6.89
2023-03-19T06:07:09.119Z,6.84
2023-03-19T06:09:54.392Z,6.76
2023-03-19T06:12:39.305Z,6.76
2023-03-19T06:15:24.306Z,6.62
2023-03-19T06:18:09.220Z,6.56
2023-03-19T06:20:54.567Z,6.57
2023-03-19T06:23:39.709Z,6.51
2023-03-19T06:26:25.743Z,6.45
2023-03-19T06:29:11.442Z,6.47
2023-03-19T06:31:58.163Z,6.47
2023-03-19T06:34:43.529Z,6.39
2023-03-19T06:37:28.577Z,6.43
2023-03-19T06:40:13.887Z,6.31
2023-03-19T06:42:59.333Z,6.35
2023-03-19T06:45:44.563Z,6.37
2023-03-19T06:48:29.574Z,6.38
2023-03-19T06:51:14.633Z,6.41
2023-03-19T06:53:59.656Z,6.33
2023-03-19T06:56:44.923Z,6.44
2023-03-19T06:59:30.184Z,6.44
2023-03-19T07:02:15.572Z,6.39
2023-03-19T07:05:00.702Z,6.43
2023-03-19T07:07:46.013Z,6.38
2023-03-19T07:10:31.363Z,6.45
2023-03-19T07:13:16.516Z,6.51
2023-03-19T07:16:01.649Z,6.50
2023-03-19T07:18:46.720Z,6.52
2023-03-19T07:21:32.087Z,6.56
2023-03-19T07:24:17.243Z,6.69
2023-03-19T07:27:03.208Z,6.63
2023-03-19T07:29:48.742Z,6.74
2023-03-19T07:32:33.790Z,6.82
2023-03-19T07:35:19.228Z,6.86
2023-03-19T07:38:04.621Z,6.93
2023-03-19T07:41:01.559Z,7.03
2023-03-19T07:43:47.691Z,7.00
2023-03-19T07:46:33.017Z,7.19
2023-03-19T07:49:18.132Z,7.31
2023-03-19T07:52:03.522Z,7.38
2023-03-19T07:54:50.123Z,7.47
2023-03-19T07:57:35.155Z,7.47
2023-03-19T08:00:20.906Z,7.42
2023-03-19T08:03:06.001Z,7.38
2023-03-19T08:05:52.497Z,7.29
2023-03-19T08:08:38.011Z,7.39
2023-03-19T08:11:23.240Z,7.29
2023-03-19T08:14:08.418Z,7.38
2023-03-19T08:16:53.455Z,7.48
2023-03-19T08:19:38.690Z,7.58
2023-03-19T08:22:23.740Z,7.59
2023-03-19T08:25:10.579Z,7.62
2023-03-19T08:27:56.278Z,7.66
2023-03-19T08:30:41.456Z,7.68
2023-03-19T08:33:26.709Z,7.79
2023-03-19T08:36:13.927Z,7.91
2023-03-19T08:38:59.131Z,7.94
2023-03-19T08:41:44.577Z,8.05
2023-03-19T08:44:29.857Z,8.11
2023-03-19T08:47:15.824Z,8.11
2023-03-19T08:50:01.447Z,8.14
2023-03-19T08:52:46.807Z,8.31
2023-03-19T08:55:32.138Z,8.55
2023-03-19T08:58:17.065Z,8.68
2023-03-19T09:01:07.803Z,8.66
2023-03-19T09:03:53.050Z,8.58
2023-03-19T09:06:38.265Z,8.53
2023-03-19T09:09:24.861Z,8.64
2023-03-19T09:12:13.011Z,8.72
2023-03-19T09:14:57.944Z,8.91
2023-03-19T09:17:43.192Z,9.07
2023-03-19T09:20:28.224Z,8.95
2023-03-19T09:23:13.447Z,8.91
2023-03-19T09:25:58.822Z,9.00
2023-03-19T09:28:44.096Z,9.19
2023-03-19T09:31:29.851Z,9.22
2023-03-19T09:34:15.336Z,9.17
2023-03-19T09:37:00.726Z,9.29
2023-03-19T09:39:45.947Z,9.37
2023-03-19T09:43:00.889Z,9.40
2023-03-19T09:45:47.801Z,9.37
2023-03-19T09:48:46.976Z,9.32
2023-03-19T09:51:44.811Z,9.16
2023-03-19T09:54:39.507Z,9.17
2023-03-19T09:57:24.787Z,9.29
2023-03-19T10:00:24.551Z,9.37
2023-03-19T10:03:31.778Z,9.30
2023-03-19T10:06:34.199Z,9.28
2023-03-19T10:09:28.494Z,9.44
2023-03-19T10:12:22.927Z,9.56
2023-03-19T10:15:25.402Z,9.60
2023-03-19T10:18:18.519Z,9.57
2023-03-19T10:21:20.031Z,9.52
2023-03-19T10:24:21.781Z,9.53
2023-03-19T10:27:28.596Z,9.59
2023-03-19T10:30:17.040Z,9.79
2023-03-19T10:33:17.693Z,9.84
2023-03-19T10:36:10.833Z,9.75
2023-03-19T10:38:56.726Z,9.68
2023-03-19T10:42:03.907Z,9.65
2023-03-19T10:45:03.443Z,9.86
2023-03-19T10:47:48.825Z,9.94
2023-03-19T10:50:53.979Z,9.88
2023-03-19T10:53:39.726Z,9.85
2023-03-19T10:56:30.151Z,9.85
2023-03-19T10:59:23.894Z,9.86
2023-03-19T11:02:31.151Z,9.79
2023-03-19T11:05:27.706Z,9.79
2023-03-19T11:08:34.831Z,9.85
2023-03-19T11:11:34.965Z,9.92
2023-03-19T11:14:24.737Z,9.92
2023-03-19T11:17:37.559Z,10.00
2023-03-19T11:20:28.171Z,10.05
2023-03-19T11:23:17.098Z,10.13
2023-03-19T11:26:02.852Z,10.19
2023-03-19T11:28:52.081Z,10.22
2023-03-19T11:31:41.685Z,10.17
2023-03-19T11:34:43.801Z,10.14
2023-03-19T11:37:52.572Z,10.11
2023-03-19T11:40:44.632Z,10.15
2023-03-19T11:43:54.546Z,10.28
2023-03-19T11:46:48.169Z,10.45
2023-03-19T11:49:50.684Z,10.55
2023-03-19T11:52:47.934Z,10.64
2023-03-19T11:55:45.513Z,10.82
2023-03-19T11:58:41.801Z,10.86
2023-03-19T12:01:51.968Z,10.76
2023-03-19T12:04:46.123Z,10.89
2023-03-19T12:07:53.015Z,10.92
2023-03-19T12:10:53.544Z,10.97
2023-03-19T12:13:59.853Z,11.19
2023-03-19T12:16:56.782Z,11.17
2023-03-19T12:20:13.166Z,11.20
2023-03-19T12:23:06.436Z,11.09
2023-03-19T12:26:05.042Z,11.16
2023-03-19T12:29:08.511Z,11.36
2023-03-19T12:32:05.344Z,11.36
2023-03-19T12:35:04.664Z,11.21
2023-03-19T12:38:00.109Z,11.10
2023-03-19T12:40:49.545Z,11.26
2023-03-19T12:44:08.872Z,11.91
2023-03-19T12:47:04.484Z,12.18
2023-03-19T12:50:04.909Z,12.28
2023-03-19T12:52:53.513Z,11.98
2023-03-19T12:55:49.744Z,11.70
2023-03-19T12:58:58.801Z,11.61
2023-03-19T13:01:52.087Z,11.62
2023-03-19T13:04:44.615Z,11.54
2023-03-19T13:07:53.948Z,11.42
2023-03-19T13:10:40.102Z,11.53
2023-03-19T13:13:33.274Z,11.68
2023-03-19T13:16:40.559Z,11.72
2023-03-19T13:19:56.532Z,11.84
2023-03-19T13:22:45.215Z,12.30
2023-03-19T13:25:39.193Z,12.39
2023-03-19T13:28:28.168Z,12.41
2023-03-19T13:31:20.748Z,12.03
2023-03-19T13:34:17.762Z,11.88
2023-03-19T13:37:09.037Z,11.85
2023-03-19T13:39:54.097Z,11.70
2023-03-19T13:42:43.734Z,11.81
2023-03-19T13:45:31.289Z,11.91
2023-03-19T13:48:29.026Z,12.39
2023-03-19T13:51:20.168Z,12.43
2023-03-19T13:54:23.146Z,12.38
2023-03-19T13:57:18.373Z,12.23
2023-03-19T14:00:22.409Z,12.21
2023-03-19T14:03:19.240Z,12.33
2023-03-19T14:06:04.466Z,12.38
2023-03-19T14:08:51.816Z,12.40
2023-03-19T14:11:37.768Z,12.28
2023-03-19T14:14:24.580Z,12.16
2023-03-19T14:17:24.822Z,12.16
2023-03-19T14:20:13.197Z,12.04
2023-03-19T14:23:17.861Z,11.88
2023-03-19T14:26:15.811Z,11.58
2023-03-19T14:29:07.424Z,11.59
2023-03-19T14:31:55.769Z,11.51
2023-03-19T14:34:42.799Z,11.40
2023-03-19T14:37:34.433Z,11.43
2023-03-19T14:40:37.916Z,11.38
2023-03-19T14:43:23.086Z,11.48
2023-03-19T14:46:17.546Z,11.66
2023-03-19T14:49:12.097Z,11.69
2023-03-19T14:52:20.714Z,11.50
2023-03-19T14:55:10.410Z,11.42
2023-03-19T14:57:56.734Z,11.39
2023-03-19T15:00:52.165Z,11.42
2023-03-19T15:03:37.957Z,11.48
2023-03-19T15:06:23.783Z,11.61
2023-03-19T15:09:26.877Z,11.69
2023-03-19T15:12:11.970Z,11.65
2023-03-19T15:15:19.842Z,11.58
2023-03-19T15:18:08.567Z,11.54
2023-03-19T15:20:54.803Z,11.64
2023-03-19T15:23:41.153Z,11.65
2023-03-19T15:26:46.026Z,11.67
2023-03-19T15:29:37.578Z,11.65
2023-03-19T15:33:09.169Z,11.64
2023-03-19T15:35:58.707Z,11.67
2023-03-19T15:39:07.004Z,11.93
2023-03-19T15:41:52.604Z,12.72
2023-03-19T15:44:42.028Z,12.97
2023-03-19T15:47:29.952Z,12.69
2023-03-19T15:50:23.505Z,12.51
2023-03-19T15:53:10.932Z,12.30
2023-03-19T15:55:56.266Z,12.14
2023-03-19T15:58:44.365Z,11.91
2023-03-19T16:01:31.738Z,11.96
2023-03-19T16:04:22.182Z,11.93
2023-03-19T16:07:21.440Z,11.96
2023-03-19T16:10:25.499Z,11.85
2023-03-19T16:13:25.663Z,11.84
2023-03-19T16:16:11.259Z,11.59
2023-03-19T16:18:57.140Z,11.40
2023-03-19T16:21:43.190Z,11.36
2023-03-19T16:24:32.687Z,11.42
2023-03-19T16:27:22.127Z,11.39
2023-03-19T16:30:21.739Z,11.19
2023-03-19T16:33:07.046Z,11.20
2023-03-19T16:35:52.594Z,11.19
2023-03-19T16:38:43.088Z,11.03
2023-03-19T16:41:33.819Z,10.93
2023-03-19T16:44:19.327Z,10.82
2023-03-19T16:47:09.499Z,10.82
2023-03-19T16:49:54.339Z,10.82
2023-03-19T16:52:40.420Z,10.93
2023-03-19T16:55:27.063Z,10.88
2023-03-19T16:58:16.338Z,10.84
2023-03-19T17:01:01.737Z,10.82
2023-03-19T17:03:47.128Z,10.69
2023-03-19T17:06:34.448Z,10.60
2023-03-19T17:09:19.346Z,10.57
2023-03-19T17:12:06.162Z,10.49
2023-03-19T17:14:52.309Z,10.44
2023-03-19T17:17:37.674Z,10.38
2023-03-19T17:20:24.571Z,10.36
2023-03-19T17:23:10.800Z,10.26
2023-03-19T17:25:56.362Z,10.18
2023-03-19T17:28:41.680Z,10.12
2023-03-19T17:31:30.654Z,10.12
2023-03-19T17:34:27.609Z,10.07
2023-03-19T17:37:13.748Z,10.06
2023-03-19T17:39:58.858Z,10.04
2023-03-19T17:42:44.222Z,10.02
2023-03-19T17:45:29.889Z,9.97
2023-03-19T17:48:33.066Z,9.96
2023-03-19T17:51:18.645Z,9.95
2023-03-19T17:54:03.954Z,9.89
2023-03-19T17:56:49.179Z,9.85
2023-03-19T17:59:34.365Z,9.81
2023-03-19T18:02:27.087Z,9.85
2023-03-19T18:05:20.103Z,9.82
2023-03-19T18:08:05.393Z,9.78
2023-03-19T18:10:50.815Z,9.79
2023-03-19T18:13:36.389Z,9.75
2023-03-19T18:16:21.633Z,9.72
2023-03-19T18:19:15.739Z,9.69
2023-03-19T18:22:00.919Z,9.69
2023-03-19T18:24:46.156Z,9.64
2023-03-19T18:27:31.126Z,9.58
2023-03-19T18:30:17.680Z,9.60
2023-03-19T18:33:07.219Z,9.56
2023-03-19T18:35:53.729Z,9.55
2023-03-19T18:38:39.145Z,9.53
2023-03-19T18:41:25.657Z,9.49
2023-03-19T18:44:12.180Z,9.49
2023-03-19T18:46:58.005Z,9.47
2023-03-19T18:49:43.355Z,9.39
2023-03-19T18:52:28.314Z,9.37
2023-03-19T18:55:14.069Z,9.37
2023-03-19T18:58:00.512Z,9.37
2023-03-19T19:00:45.657Z,9.36
2023-03-19T19:03:31.681Z,9.28
2023-03-19T19:06:44.268Z,9.24
2023-03-19T19:09:32.114Z,9.24
2023-03-19T19:12:18.670Z,9.20
2023-03-19T19:15:05.129Z,9.18
2023-03-19T19:17:50.566Z,9.18
2023-03-19T19:20:35.695Z,9.14
2023-03-19T19:23:21.620Z,9.11
2023-03-19T19:26:06.884Z,9.08
2023-03-19T19:28:52.970Z,9.10
2023-03-19T19:31:38.075Z,9.07
2023-03-19T19:34:23.085Z,9.02
2023-03-19T19:37:14.390Z,9.01
2023-03-19T19:39:59.491Z,8.96
2023-03-19T19:42:45.734Z,8.96
2023-03-19T19:45:37.716Z,8.96
2023-03-19T19:48:27.003Z,8.93
2023-03-19T19:51:18.137Z,8.91
2023-03-19T19:54:03.804Z,8.90
2023-03-19T19:56:49.845Z,8.90
2023-03-19T19:59:35.103Z,8.87
2023-03-19T20:02:24.298Z,8.81
2023-03-19T20:05:15.350Z,8.77
2023-03-19T20:08:01.580Z,8.72
2023-03-19T20:10:47.706Z,8.70
2023-03-19T20:13:34.223Z,8.68
2023-03-19T20:16:19.751Z,8.65
2023-03-19T20:19:04.853Z,8.61
2023-03-19T20:21:49.663Z,8.59
2023-03-19T20:24:34.497Z,8.56
2023-03-19T20:27:21.555Z,8.56
2023-03-19T20:30:08.193Z,8.55
2023-03-19T20:32:54.640Z,8.56
2023-03-19T20:35:39.866Z,8.55
2023-03-19T20:38:27.134Z,8.50
2023-03-19T20:41:22.817Z,8.48
2023-03-19T20:44:07.853Z,8.48
2023-03-19T20:46:52.702Z,8.46
2023-03-19T20:49:37.705Z,8.46
2023-03-19T20:52:22.590Z,8.45
2023-03-19T20:55:08.158Z,8.44
2023-03-19T20:57:53.576Z,8.41
2023-03-19T21:00:38.719Z,8.40
2023-03-19T21:03:25.453Z,8.41
2023-03-19T21:06:21.049Z,8.39
2023-03-19T21:09:05.883Z,8.38
2023-03-19T21:11:52.181Z,8.35
2023-03-19T21:14:37.495Z,8.32
2023-03-19T21:17:22.718Z,8.27
2023-03-19T21:20:08.059Z,8.26
2023-03-19T21:22:58.855Z,8.25
2023-03-19T21:25:45.003Z,8.24
2023-03-19T21:28:34.238Z,8.22
2023-03-19T21:31:20.632Z,8.25
2023-03-19T21:34:05.881Z,8.27
2023-03-19T21:36:51.044Z,8.24
2023-03-19T21:39:36.493Z,8.20
2023-03-19T21:42:22.620Z,8.17
2023-03-19T21:45:14.572Z,8.18
2023-03-19T21:48:02.410Z,8.13
2023-03-19T21:50:50.096Z,8.14
2023-03-19T21:53:35.050Z,8.13
2023-03-19T21:56:22.051Z,8.12
2023-03-19T21:59:18.015Z,8.10
2023-03-19T22:02:04.374Z,8.12
2023-03-19T22:04:49.455Z,8.09
2023-03-19T22:07:34.194Z,8.07
2023-03-19T22:10:20.152Z,8.05
2023-03-19T22:13:05.129Z,8.01
2023-03-19T22:15:51.486Z,7.94
2023-03-19T22:18:36.508Z,7.90
2023-03-19T22:21:22.560Z,7.93
2023-03-19T22:24:08.010Z,7.93
2023-03-19T22:26:56.485Z,7.91
2023-03-19T22:29:41.761Z,7.89
2023-03-19T22:32:27.030Z,7.86
2023-03-19T22:35:14.824Z,7.81
2023-03-19T22:37:59.779Z,7.79
2023-03-19T22:40:45.780Z,7.79
2023-03-19T22:43:33.285Z,7.76
2023-03-19T22:46:18.805Z,7.73
2023-03-19T22:49:06.506Z,7.75
2023-03-19T22:51:51.335Z,7.69
2023-03-19T22:54:36.499Z,7.66
2023-03-19T22:57:21.461Z,7.66
2023-03-19T23:00:12.121Z,7.64
2023-03-19T23:03:01.075Z,7.64
2023-03-19T23:05:48.312Z,7.65
2023-03-19T23:08:33.538Z,7.62
2023-03-19T23:11:18.777Z,7.64
2023-03-19T23:14:03.813Z,7.66
2023-03-19T23:16:49.035Z,7.64
2023-03-19T23:19:35.274Z,7.66
2023-03-19T23:22:20.860Z,7.68
2023-03-19T23:25:06.022Z,7.67
2023-03-19T23:27:51.158Z,7.67
2023-03-19T23:30:41.297Z,7.66
2023-03-19T23:33:26.972Z,7.68
2023-03-19T23:36:12.314Z,7.68
2023-03-19T23:38:57.599Z,7.69
2023-03-19T23:41:48.281Z,7.69
2023-03-19T23:44:33.600Z,7.70
2023-03-19T23:47:18.648Z,7.73
2023-03-19T23:50:04.045Z,7.75
2023-03-19T23:52:50.305Z,7.70
2023-03-19T23:55:35.612Z,7.68
2023-03-19T23:58:21.424Z,7.67
